EW5187 Weather Reports


Display with metric or nautical units.
time (UTC)temp
F
wind
direction
speed
MPH
gust
MPH
rain 1hr
in
rain 24hr
in
rain mn
in
humidity
%
barometer
mb
20200406060705 46 112 0.0 0.0 0.00 0.00 0.00 92 1013.0
20200406055706 46 112 0.0 0.0 0.00 0.00 0.00 92 1013.0
20200406054705 46 112 0.0 0.0 0.00 0.00 0.00 92 1013.0
20200406053705 47 112 0.0 0.0 0.00 0.00 0.00 92 1013.0
20200406052705 47 112 0.0 0.0 0.00 0.00 0.00 92 1013.0
20200406051704 47 112 0.0 0.0 0.00 0.00 0.00 92 1013.0
20200406050705 47 112 0.0 0.0 0.00 0.00 0.00 92 1013.0
20200406045705 47 112 0.0 0.0 0.00 0.00 0.00 92 1013.0
20200406044706 47 112 0.0 0.0 0.00 0.00 0.00 92 1013.0
20200406043705 47 112 0.0 0.0 0.00 0.00 0.00 92 1013.0
20200406042704 47 112 0.0 0.0 0.00 0.00 0.00 92 1013.0
20200406041705 47 112 0.0 0.0 0.00 0.00 0.00 91 1013.0
20200406040705 47 112 0.0 0.0 0.00 0.00 0.00 91 1013.0
20200406035704 47 112 0.0 0.0 0.00 0.00 0.00 91 1013.0
20200406034706 48 112 0.0 0.0 0.00 0.00 0.00 91 1013.0
20200406033705 48 112 0.0 0.0 0.00 0.00 0.00 91 1013.0
20200406032705 48 112 0.0 0.0 0.00 0.00 0.00 91 1013.0
20200406031705 48 112 0.0 0.0 0.00 0.00 0.00 90 1013.0
20200406030705 49 112 0.0 0.0 0.00 0.00 0.00 90 1013.0
20200406025705 49 112 0.0 0.0 0.00 0.00 0.00 90 1013.0
20200406024707 49 112 0.0 0.0 0.00 0.00 0.00 90 1013.0
20200406023705 49 112 0.0 0.0 0.00 0.00 0.00 90 1013.0
20200406022705 49 112 0.0 1.0 0.00 0.00 0.00 90 1013.0
20200406021705 50 112 0.0 0.0 0.00 0.00 0.00 89 1013.0
20200406020705 50 112 0.0 0.0 0.00 0.00 0.00 89 1013.0
20200406015704 50 112 0.0 0.0 0.00 0.00 0.00 88 1013.0
20200406014705 51 135 0.0 0.0 0.00 0.00 0.00 88 1013.0
20200406013707 51 135 0.0 0.0 0.00 0.00 0.00 87 1013.0
20200406012705 51 135 0.0 0.0 0.00 0.00 0.00 86 1013.0
20200406011705 52 135 0.0 0.0 0.00 0.00 0.00 84 1013.0
20200406010704 53 135 0.0 0.0 0.00 0.00 0.00 85 1013.0
20200406005704 53 135 0.0 0.0 0.00 0.00 0.00 82 1013.0
20200406004706 54 135 0.0 2.0 0.00 0.00 0.00 84 1013.0
20200406003705 55 135 0.0 2.0 0.00 0.00 0.00 83 1013.0
20200406002704 56 158 0.0 2.0 0.00 0.00 0.00 82 1013.0
20200406001704 56 127 0.0 2.0 0.00 0.00 0.00 79 1013.0
20200406000705 57 120 0.0 2.0 0.00 0.00 0.00 76 1013.0
20200405235705 58 202 0.0 2.0 0.00 0.00 0.00 74 1013.0
20200405234705 58 181 3.0 3.0 0.00 0.00 0.00 73 1013.0
20200405233704 59 90 2.0 2.0 0.00 0.00 0.00 69 1013.0
20200405232704 60 158 2.0 5.0 0.00 0.00 0.00 68 1013.0
20200405231705 61 149 3.0 5.0 0.00 0.00 0.00 65 1013.0
20200405230704 62 168 3.0 5.0 0.00 0.00 0.00 63 1013.0
20200405225705 63 168 2.0 5.0 0.00 0.00 0.00 62 1013.0
20200405224704 64 173 2.0 5.0 0.00 0.00 0.00 60 1013.0
20200405223705 65 140 4.0 6.0 0.00 0.00 0.00 58 1013.0
20200405222704 65 84 3.0 6.0 0.00 0.00 0.00 55 1013.0
20200405221732 65 173 2.0 7.0 0.00 0.00 0.00 57 1013.0
20200405062703 47 46 2.0 3.0 0.00 0.00 0.00 88 1013.0
20200405061704 47 45 2.0 3.0 0.00 0.00 0.00 88 1013.0